sensor_id;sensor_type;location;lat;lon;timestamp;P1;durP1;ratioP1;P2;durP2;ratioP2
76725;SDS011;65651;53.154;17.916;2022-12-29T00:01:01;12.80;;;5.90;;
76725;SDS011;65651;53.154;17.916;2022-12-29T00:03:29;14.20;;;7.50;;
76725;SDS011;65651;53.154;17.916;2022-12-29T00:05:57;14.50;;;6.40;;
76725;SDS011;65651;53.154;17.916;2022-12-29T00:08:25;20.90;;;10.00;;
76725;SDS011;65651;53.154;17.916;2022-12-29T00:11:11;14.30;;;7.30;;
76725;SDS011;65651;53.154;17.916;2022-12-29T00:13:41;13.80;;;5.80;;
76725;SDS011;65651;53.154;17.916;2022-12-29T00:16:27;22.80;;;11.10;;
76725;SDS011;65651;53.154;17.916;2022-12-29T00:18:55;18.70;;;9.30;;
76725;SDS011;65651;53.154;17.916;2022-12-29T00:21:24;19.80;;;10.30;;
76725;SDS011;65651;53.154;17.916;2022-12-29T00:24:17;12.60;;;5.20;;
76725;SDS011;65651;53.154;17.916;2022-12-29T00:27:13;15.80;;;6.60;;
76725;SDS011;65651;53.154;17.916;2022-12-29T00:29:58;9.20;;;4.70;;
76725;SDS011;65651;53.154;17.916;2022-12-29T00:32:44;15.60;;;7.60;;
76725;SDS011;65651;53.154;17.916;2022-12-29T00:35:36;7.30;;;3.70;;
76725;SDS011;65651;53.154;17.916;2022-12-29T00:38:08;10.50;;;4.70;;
76725;SDS011;65651;53.154;17.916;2022-12-29T00:40:56;13.00;;;6.20;;
76725;SDS011;65651;53.154;17.916;2022-12-29T00:43:42;18.90;;;9.10;;
76725;SDS011;65651;53.154;17.916;2022-12-29T00:46:28;16.30;;;7.10;;
76725;SDS011;65651;53.154;17.916;2022-12-29T00:48:56;8.50;;;4.90;;
76725;SDS011;65651;53.154;17.916;2022-12-29T00:51:43;12.00;;;5.40;;
76725;SDS011;65651;53.154;17.916;2022-12-29T00:54:10;23.80;;;10.20;;
76725;SDS011;65651;53.154;17.916;2022-12-29T00:56:42;18.30;;;8.30;;
76725;SDS011;65651;53.154;17.916;2022-12-29T00:59:09;10.30;;;4.80;;
76725;SDS011;65651;53.154;17.916;2022-12-29T01:01:38;12.10;;;6.30;;
76725;SDS011;65651;53.154;17.916;2022-12-29T01:04:06;9.90;;;5.70;;
76725;SDS011;65651;53.154;17.916;2022-12-29T01:06:35;12.70;;;5.40;;
76725;SDS011;65651;53.154;17.916;2022-12-29T01:09:05;13.20;;;6.00;;
76725;SDS011;65651;53.154;17.916;2022-12-29T01:11:52;9.70;;;4.80;;
76725;SDS011;65651;53.154;17.916;2022-12-29T01:14:20;8.40;;;5.60;;
76725;SDS011;65651;53.154;17.916;2022-12-29T01:16:48;16.30;;;8.10;;
76725;SDS011;65651;53.154;17.916;2022-12-29T01:19:18;14.40;;;7.20;;
76725;SDS011;65651;53.154;17.916;2022-12-29T01:21:48;37.50;;;14.20;;
76725;SDS011;65651;53.154;17.916;2022-12-29T01:24:16;39.80;;;16.10;;
76725;SDS011;65651;53.154;17.916;2022-12-29T01:26:47;30.30;;;13.30;;
76725;SDS011;65651;53.154;17.916;2022-12-29T01:29:17;26.00;;;13.50;;
76725;SDS011;65651;53.154;17.916;2022-12-29T01:31:46;17.20;;;9.40;;
76725;SDS011;65651;53.154;17.916;2022-12-29T01:34:13;10.00;;;6.50;;
76725;SDS011;65651;53.154;17.916;2022-12-29T01:36:41;8.80;;;4.30;;
76725;SDS011;65651;53.154;17.916;2022-12-29T01:39:09;16.50;;;8.90;;
76725;SDS011;65651;53.154;17.916;2022-12-29T01:41:36;8.80;;;5.30;;
76725;SDS011;65651;53.154;17.916;2022-12-29T01:44:39;10.40;;;5.70;;
76725;SDS011;65651;53.154;17.916;2022-12-29T01:47:09;32.60;;;15.90;;
76725;SDS011;65651;53.154;17.916;2022-12-29T01:49:38;12.30;;;6.80;;
76725;SDS011;65651;53.154;17.916;2022-12-29T01:52:06;13.40;;;7.30;;
76725;SDS011;65651;53.154;17.916;2022-12-29T01:54:42;11.20;;;7.00;;
76725;SDS011;65651;53.154;17.916;2022-12-29T01:57:24;9.20;;;4.90;;
76725;SDS011;65651;53.154;17.916;2022-12-29T01:59:58;11.60;;;5.90;;
76725;SDS011;65651;53.154;17.916;2022-12-29T02:02:53;11.80;;;4.90;;
76725;SDS011;65651;53.154;17.916;2022-12-29T02:05:36;10.10;;;6.00;;
76725;SDS011;65651;53.154;17.916;2022-12-29T02:08:13;12.50;;;6.60;;
76725;SDS011;65651;53.154;17.916;2022-12-29T02:10:40;7.10;;;4.60;;
76725;SDS011;65651;53.154;17.916;2022-12-29T02:13:09;12.60;;;6.50;;
76725;SDS011;65651;53.154;17.916;2022-12-29T02:15:48;6.80;;;3.00;;
76725;SDS011;65651;53.154;17.916;2022-12-29T02:18:25;10.30;;;4.50;;
76725;SDS011;65651;53.154;17.916;2022-12-29T02:32:13;8.40;;;5.80;;
76725;SDS011;65651;53.154;17.916;2022-12-29T02:40:48;7.90;;;4.40;;
76725;SDS011;65651;53.154;17.916;2022-12-29T02:43:24;6.30;;;3.90;;
76725;SDS011;65651;53.154;17.916;2022-12-29T02:51:33;9.50;;;4.70;;
76725;SDS011;65651;53.154;17.916;2022-12-29T02:54:24;11.30;;;4.90;;
76725;SDS011;65651;53.154;17.916;2022-12-29T02:57:12;8.90;;;4.00;;
76725;SDS011;65651;53.154;17.916;2022-12-29T02:59:56;6.20;;;4.30;;
76725;SDS011;65651;53.154;17.916;2022-12-29T03:05:22;8.70;;;4.10;;
76725;SDS011;65651;53.154;17.916;2022-12-29T03:11:09;8.50;;;4.00;;
76725;SDS011;65651;53.154;17.916;2022-12-29T03:16:55;7.50;;;3.80;;
76725;SDS011;65651;53.154;17.916;2022-12-29T03:22:07;5.90;;;3.60;;
76725;SDS011;65651;53.154;17.916;2022-12-29T03:25:15;6.00;;;3.40;;
76725;SDS011;65651;53.154;17.916;2022-12-29T03:28:07;7.40;;;2.70;;
76725;SDS011;65651;53.154;17.916;2022-12-29T03:30:42;4.20;;;2.70;;
76725;SDS011;65651;53.154;17.916;2022-12-29T03:33:17;6.70;;;4.40;;
76725;SDS011;65651;53.154;17.916;2022-12-29T03:35:49;3.20;;;1.70;;
76725;SDS011;65651;53.154;17.916;2022-12-29T03:38:25;7.40;;;2.90;;
76725;SDS011;65651;53.154;17.916;2022-12-29T03:41:06;11.20;;;3.40;;
76725;SDS011;65651;53.154;17.916;2022-12-29T03:43:37;7.00;;;3.40;;
76725;SDS011;65651;53.154;17.916;2022-12-29T03:46:05;5.80;;;3.30;;
76725;SDS011;65651;53.154;17.916;2022-12-29T03:48:34;6.20;;;3.00;;
76725;SDS011;65651;53.154;17.916;2022-12-29T03:51:01;6.90;;;4.00;;
76725;SDS011;65651;53.154;17.916;2022-12-29T03:53:29;7.30;;;4.00;;
76725;SDS011;65651;53.154;17.916;2022-12-29T03:55:56;5.90;;;3.20;;
76725;SDS011;65651;53.154;17.916;2022-12-29T03:58:24;6.00;;;3.00;;
76725;SDS011;65651;53.154;17.916;2022-12-29T04:01:00;4.70;;;2.50;;
76725;SDS011;65651;53.154;17.916;2022-12-29T04:03:28;7.10;;;3.10;;
76725;SDS011;65651;53.154;17.916;2022-12-29T04:05:56;4.90;;;3.10;;
76725;SDS011;65651;53.154;17.916;2022-12-29T04:08:23;7.80;;;3.90;;
76725;SDS011;65651;53.154;17.916;2022-12-29T04:10:51;5.00;;;3.10;;
76725;SDS011;65651;53.154;17.916;2022-12-29T04:13:20;5.00;;;2.80;;
76725;SDS011;65651;53.154;17.916;2022-12-29T04:15:47;5.00;;;2.60;;
76725;SDS011;65651;53.154;17.916;2022-12-29T04:18:15;6.30;;;3.20;;
76725;SDS011;65651;53.154;17.916;2022-12-29T04:20:44;4.60;;;2.70;;
76725;SDS011;65651;53.154;17.916;2022-12-29T04:23:28;7.50;;;2.60;;
76725;SDS011;65651;53.154;17.916;2022-12-29T04:25:57;3.90;;;2.30;;
76725;SDS011;65651;53.154;17.916;2022-12-29T04:28:26;5.80;;;2.50;;
76725;SDS011;65651;53.154;17.916;2022-12-29T04:31:03;8.40;;;2.80;;
76725;SDS011;65651;53.154;17.916;2022-12-29T04:33:36;3.30;;;2.20;;
76725;SDS011;65651;53.154;17.916;2022-12-29T04:36:04;4.90;;;2.70;;
76725;SDS011;65651;53.154;17.916;2022-12-29T04:38:32;5.30;;;2.50;;
76725;SDS011;65651;53.154;17.916;2022-12-29T04:41:03;6.60;;;3.00;;
76725;SDS011;65651;53.154;17.916;2022-12-29T04:43:32;3.40;;;1.80;;
76725;SDS011;65651;53.154;17.916;2022-12-29T04:46:22;9.60;;;3.60;;
76725;SDS011;65651;53.154;17.916;2022-12-29T04:49:02;7.80;;;3.70;;
76725;SDS011;65651;53.154;17.916;2022-12-29T04:52:07;14.60;;;9.80;;
76725;SDS011;65651;53.154;17.916;2022-12-29T04:54:35;11.40;;;3.40;;
76725;SDS011;65651;53.154;17.916;2022-12-29T04:57:09;9.80;;;4.20;;
76725;SDS011;65651;53.154;17.916;2022-12-29T04:59:39;10.20;;;4.40;;
76725;SDS011;65651;53.154;17.916;2022-12-29T05:02:07;45.10;;;16.00;;
76725;SDS011;65651;53.154;17.916;2022-12-29T05:04:36;19.30;;;7.70;;
76725;SDS011;65651;53.154;17.916;2022-12-29T05:07:03;14.00;;;5.30;;
76725;SDS011;65651;53.154;17.916;2022-12-29T05:09:31;8.80;;;3.30;;
76725;SDS011;65651;53.154;17.916;2022-12-29T05:12:00;15.30;;;6.10;;
76725;SDS011;65651;53.154;17.916;2022-12-29T05:14:27;14.80;;;5.70;;
76725;SDS011;65651;53.154;17.916;2022-12-29T05:16:57;11.80;;;4.40;;
76725;SDS011;65651;53.154;17.916;2022-12-29T05:19:26;8.10;;;2.60;;
76725;SDS011;65651;53.154;17.916;2022-12-29T05:21:56;4.40;;;2.10;;
76725;SDS011;65651;53.154;17.916;2022-12-29T05:24:23;9.40;;;4.40;;
76725;SDS011;65651;53.154;17.916;2022-12-29T05:26:53;11.80;;;4.10;;
76725;SDS011;65651;53.154;17.916;2022-12-29T05:29:39;18.20;;;5.80;;
76725;SDS011;65651;53.154;17.916;2022-12-29T05:32:08;10.20;;;4.00;;
76725;SDS011;65651;53.154;17.916;2022-12-29T05:34:36;11.30;;;4.50;;
76725;SDS011;65651;53.154;17.916;2022-12-29T05:37:04;11.90;;;3.90;;
76725;SDS011;65651;53.154;17.916;2022-12-29T05:39:31;11.00;;;4.00;;
76725;SDS011;65651;53.154;17.916;2022-12-29T05:42:01;4.20;;;2.30;;
76725;SDS011;65651;53.154;17.916;2022-12-29T05:44:47;7.70;;;3.10;;
76725;SDS011;65651;53.154;17.916;2022-12-29T05:47:35;5.60;;;2.80;;
76725;SDS011;65651;53.154;17.916;2022-12-29T05:50:21;3.90;;;1.80;;
76725;SDS011;65651;53.154;17.916;2022-12-29T05:53:20;7.30;;;3.20;;
76725;SDS011;65651;53.154;17.916;2022-12-29T05:55:48;7.90;;;3.00;;
76725;SDS011;65651;53.154;17.916;2022-12-29T05:58:17;6.70;;;2.90;;
76725;SDS011;65651;53.154;17.916;2022-12-29T06:00:45;13.40;;;3.50;;
76725;SDS011;65651;53.154;17.916;2022-12-29T06:03:13;10.20;;;3.80;;
76725;SDS011;65651;53.154;17.916;2022-12-29T06:05:44;5.60;;;2.60;;
76725;SDS011;65651;53.154;17.916;2022-12-29T06:08:12;5.30;;;2.30;;
76725;SDS011;65651;53.154;17.916;2022-12-29T06:10:40;40.80;;;17.70;;
76725;SDS011;65651;53.154;17.916;2022-12-29T06:13:09;6.80;;;2.50;;
76725;SDS011;65651;53.154;17.916;2022-12-29T06:15:40;8.20;;;3.50;;
76725;SDS011;65651;53.154;17.916;2022-12-29T06:18:08;5.80;;;2.10;;
76725;SDS011;65651;53.154;17.916;2022-12-29T06:20:35;3.60;;;2.00;;
76725;SDS011;65651;53.154;17.916;2022-12-29T06:23:05;13.50;;;4.10;;
76725;SDS011;65651;53.154;17.916;2022-12-29T06:25:33;15.90;;;6.70;;
76725;SDS011;65651;53.154;17.916;2022-12-29T06:28:03;14.40;;;4.60;;
76725;SDS011;65651;53.154;17.916;2022-12-29T06:30:32;10.90;;;5.10;;
76725;SDS011;65651;53.154;17.916;2022-12-29T06:33:01;9.50;;;3.90;;
76725;SDS011;65651;53.154;17.916;2022-12-29T06:35:28;14.50;;;5.10;;
76725;SDS011;65651;53.154;17.916;2022-12-29T06:37:56;9.20;;;4.40;;
76725;SDS011;65651;53.154;17.916;2022-12-29T06:40:23;3.40;;;1.70;;
76725;SDS011;65651;53.154;17.916;2022-12-29T06:43:09;9.00;;;3.90;;
76725;SDS011;65651;53.154;17.916;2022-12-29T06:45:56;19.80;;;6.20;;
76725;SDS011;65651;53.154;17.916;2022-12-29T06:48:23;17.90;;;5.20;;
76725;SDS011;65651;53.154;17.916;2022-12-29T06:50:51;19.00;;;5.90;;
76725;SDS011;65651;53.154;17.916;2022-12-29T06:53:18;59.40;;;12.40;;
76725;SDS011;65651;53.154;17.916;2022-12-29T06:55:48;37.10;;;8.80;;
76725;SDS011;65651;53.154;17.916;2022-12-29T06:58:16;136.70;;;27.30;;
76725;SDS011;65651;53.154;17.916;2022-12-29T07:00:44;63.60;;;12.30;;
76725;SDS011;65651;53.154;17.916;2022-12-29T07:03:11;9.90;;;4.10;;
76725;SDS011;65651;53.154;17.916;2022-12-29T07:05:39;33.50;;;8.70;;
76725;SDS011;65651;53.154;17.916;2022-12-29T07:08:06;12.80;;;3.90;;
76725;SDS011;65651;53.154;17.916;2022-12-29T07:10:34;34.70;;;7.60;;
76725;SDS011;65651;53.154;17.916;2022-12-29T07:13:01;63.40;;;13.50;;
76725;SDS011;65651;53.154;17.916;2022-12-29T07:15:29;57.10;;;13.40;;
76725;SDS011;65651;53.154;17.916;2022-12-29T07:17:56;52.80;;;9.70;;
76725;SDS011;65651;53.154;17.916;2022-12-29T07:20:24;40.90;;;9.80;;
76725;SDS011;65651;53.154;17.916;2022-12-29T07:22:51;74.00;;;12.30;;
76725;SDS011;65651;53.154;17.916;2022-12-29T07:25:18;30.70;;;10.00;;
76725;SDS011;65651;53.154;17.916;2022-12-29T07:27:46;17.40;;;5.20;;
76725;SDS011;65651;53.154;17.916;2022-12-29T07:30:13;20.90;;;6.20;;
76725;SDS011;65651;53.154;17.916;2022-12-29T07:32:41;23.20;;;6.90;;
76725;SDS011;65651;53.154;17.916;2022-12-29T07:35:10;34.60;;;10.80;;
76725;SDS011;65651;53.154;17.916;2022-12-29T07:37:38;30.10;;;8.50;;
76725;SDS011;65651;53.154;17.916;2022-12-29T07:40:06;45.80;;;8.90;;
76725;SDS011;65651;53.154;17.916;2022-12-29T07:42:34;13.40;;;4.40;;
76725;SDS011;65651;53.154;17.916;2022-12-29T07:45:01;13.70;;;4.60;;
76725;SDS011;65651;53.154;17.916;2022-12-29T07:47:48;20.70;;;6.50;;
76725;SDS011;65651;53.154;17.916;2022-12-29T07:50:16;18.80;;;5.90;;
76725;SDS011;65651;53.154;17.916;2022-12-29T07:52:43;22.60;;;7.20;;
76725;SDS011;65651;53.154;17.916;2022-12-29T07:55:11;47.20;;;10.70;;
76725;SDS011;65651;53.154;17.916;2022-12-29T07:57:39;34.90;;;9.80;;
76725;SDS011;65651;53.154;17.916;2022-12-29T08:00:07;74.60;;;23.10;;
76725;SDS011;65651;53.154;17.916;2022-12-29T08:02:41;27.20;;;8.80;;
76725;SDS011;65651;53.154;17.916;2022-12-29T08:05:08;34.10;;;12.80;;
76725;SDS011;65651;53.154;17.916;2022-12-29T08:07:36;22.20;;;8.00;;
76725;SDS011;65651;53.154;17.916;2022-12-29T08:10:03;25.00;;;9.00;;
76725;SDS011;65651;53.154;17.916;2022-12-29T08:12:31;20.10;;;8.70;;
76725;SDS011;65651;53.154;17.916;2022-12-29T08:15:01;39.90;;;14.80;;
76725;SDS011;65651;53.154;17.916;2022-12-29T08:17:28;13.60;;;6.60;;
76725;SDS011;65651;53.154;17.916;2022-12-29T08:19:55;14.40;;;5.80;;
76725;SDS011;65651;53.154;17.916;2022-12-29T08:22:23;48.00;;;14.30;;
76725;SDS011;65651;53.154;17.916;2022-12-29T08:24:52;25.60;;;9.30;;
76725;SDS011;65651;53.154;17.916;2022-12-29T08:27:19;17.30;;;7.20;;
76725;SDS011;65651;53.154;17.916;2022-12-29T08:29:47;31.30;;;13.90;;
76725;SDS011;65651;53.154;17.916;2022-12-29T08:32:15;84.00;;;37.40;;
76725;SDS011;65651;53.154;17.916;2022-12-29T08:34:45;75.90;;;35.10;;
76725;SDS011;65651;53.154;17.916;2022-12-29T08:37:13;61.20;;;25.70;;
76725;SDS011;65651;53.154;17.916;2022-12-29T08:39:40;38.70;;;14.10;;
76725;SDS011;65651;53.154;17.916;2022-12-29T08:42:07;64.30;;;24.00;;
76725;SDS011;65651;53.154;17.916;2022-12-29T08:44:35;145.90;;;51.50;;
76725;SDS011;65651;53.154;17.916;2022-12-29T08:47:02;71.10;;;27.70;;
76725;SDS011;65651;53.154;17.916;2022-12-29T08:49:30;31.90;;;13.50;;
76725;SDS011;65651;53.154;17.916;2022-12-29T08:51:57;16.10;;;7.50;;
76725;SDS011;65651;53.154;17.916;2022-12-29T08:54:25;21.50;;;8.60;;
76725;SDS011;65651;53.154;17.916;2022-12-29T08:56:52;15.40;;;8.30;;
76725;SDS011;65651;53.154;17.916;2022-12-29T08:59:26;9.00;;;5.70;;
76725;SDS011;65651;53.154;17.916;2022-12-29T09:01:53;8.50;;;4.60;;
76725;SDS011;65651;53.154;17.916;2022-12-29T09:04:22;13.20;;;7.30;;
76725;SDS011;65651;53.154;17.916;2022-12-29T09:06:50;7.40;;;3.70;;
76725;SDS011;65651;53.154;17.916;2022-12-29T09:09:17;12.50;;;5.50;;
76725;SDS011;65651;53.154;17.916;2022-12-29T09:11:45;9.70;;;5.10;;
76725;SDS011;65651;53.154;17.916;2022-12-29T09:14:13;10.30;;;5.10;;
76725;SDS011;65651;53.154;17.916;2022-12-29T09:16:41;16.40;;;7.60;;
76725;SDS011;65651;53.154;17.916;2022-12-29T09:19:27;7.80;;;4.80;;
76725;SDS011;65651;53.154;17.916;2022-12-29T09:21:54;15.80;;;7.20;;
76725;SDS011;65651;53.154;17.916;2022-12-29T09:24:23;10.40;;;5.50;;
76725;SDS011;65651;53.154;17.916;2022-12-29T09:26:50;10.10;;;5.10;;
76725;SDS011;65651;53.154;17.916;2022-12-29T09:29:18;10.60;;;5.30;;
76725;SDS011;65651;53.154;17.916;2022-12-29T09:31:45;6.70;;;3.40;;
76725;SDS011;65651;53.154;17.916;2022-12-29T09:34:12;9.80;;;4.70;;
76725;SDS011;65651;53.154;17.916;2022-12-29T09:36:40;10.20;;;4.30;;
76725;SDS011;65651;53.154;17.916;2022-12-29T09:39:07;3.90;;;2.50;;
76725;SDS011;65651;53.154;17.916;2022-12-29T09:41:49;15.20;;;6.30;;
76725;SDS011;65651;53.154;17.916;2022-12-29T09:47:14;15.20;;;6.90;;
76725;SDS011;65651;53.154;17.916;2022-12-29T09:49:46;20.10;;;8.10;;
76725;SDS011;65651;53.154;17.916;2022-12-29T09:52:22;23.40;;;8.70;;
76725;SDS011;65651;53.154;17.916;2022-12-29T09:55:19;30.00;;;13.20;;
76725;SDS011;65651;53.154;17.916;2022-12-29T09:57:54;22.30;;;9.40;;
76725;SDS011;65651;53.154;17.916;2022-12-29T10:01:00;20.10;;;8.60;;
76725;SDS011;65651;53.154;17.916;2022-12-29T10:03:24;10.10;;;5.10;;
76725;SDS011;65651;53.154;17.916;2022-12-29T10:06:29;9.00;;;3.70;;
76725;SDS011;65651;53.154;17.916;2022-12-29T10:32:04;20.00;;;8.90;;
76725;SDS011;65651;53.154;17.916;2022-12-29T10:34:41;12.90;;;6.90;;
76725;SDS011;65651;53.154;17.916;2022-12-29T10:40:25;9.30;;;4.70;;
76725;SDS011;65651;53.154;17.916;2022-12-29T10:42:55;8.60;;;4.00;;
76725;SDS011;65651;53.154;17.916;2022-12-29T10:45:25;8.20;;;3.30;;
76725;SDS011;65651;53.154;17.916;2022-12-29T10:48:00;23.10;;;9.20;;
76725;SDS011;65651;53.154;17.916;2022-12-29T10:50:34;9.60;;;4.50;;
76725;SDS011;65651;53.154;17.916;2022-12-29T10:53:02;18.30;;;9.60;;
76725;SDS011;65651;53.154;17.916;2022-12-29T10:55:33;8.50;;;5.30;;
76725;SDS011;65651;53.154;17.916;2022-12-29T10:58:06;7.60;;;4.50;;
76725;SDS011;65651;53.154;17.916;2022-12-29T11:00:38;14.90;;;7.50;;
76725;SDS011;65651;53.154;17.916;2022-12-29T11:06:00;7.70;;;4.40;;
76725;SDS011;65651;53.154;17.916;2022-12-29T11:08:36;8.90;;;3.40;;
76725;SDS011;65651;53.154;17.916;2022-12-29T11:11:09;4.60;;;2.50;;
76725;SDS011;65651;53.154;17.916;2022-12-29T11:16:40;7.30;;;3.20;;
76725;SDS011;65651;53.154;17.916;2022-12-29T11:19:20;6.30;;;3.60;;
76725;SDS011;65651;53.154;17.916;2022-12-29T11:21:50;6.80;;;3.50;;
76725;SDS011;65651;53.154;17.916;2022-12-29T11:24:20;11.20;;;5.70;;
76725;SDS011;65651;53.154;17.916;2022-12-29T11:26:51;8.40;;;3.10;;
76725;SDS011;65651;53.154;17.916;2022-12-29T11:29:26;7.30;;;3.40;;
76725;SDS011;65651;53.154;17.916;2022-12-29T11:31:56;10.50;;;5.20;;
76725;SDS011;65651;53.154;17.916;2022-12-29T11:34:32;6.90;;;4.30;;
76725;SDS011;65651;53.154;17.916;2022-12-29T11:37:18;6.30;;;4.00;;
76725;SDS011;65651;53.154;17.916;2022-12-29T11:39:58;9.00;;;4.10;;
76725;SDS011;65651;53.154;17.916;2022-12-29T11:42:41;9.90;;;3.80;;
76725;SDS011;65651;53.154;17.916;2022-12-29T11:45:17;8.10;;;4.10;;
76725;SDS011;65651;53.154;17.916;2022-12-29T11:47:47;6.00;;;3.70;;
76725;SDS011;65651;53.154;17.916;2022-12-29T11:50:29;6.00;;;2.90;;
76725;SDS011;65651;53.154;17.916;2022-12-29T11:55:29;6.00;;;2.60;;
76725;SDS011;65651;53.154;17.916;2022-12-29T11:57:59;16.10;;;6.30;;
76725;SDS011;65651;53.154;17.916;2022-12-29T12:00:30;13.10;;;6.00;;
76725;SDS011;65651;53.154;17.916;2022-12-29T12:03:02;7.50;;;3.50;;
76725;SDS011;65651;53.154;17.916;2022-12-29T12:05:35;10.30;;;4.40;;
76725;SDS011;65651;53.154;17.916;2022-12-29T12:13:55;4.00;;;2.10;;
76725;SDS011;65651;53.154;17.916;2022-12-29T12:17:15;13.50;;;5.40;;
76725;SDS011;65651;53.154;17.916;2022-12-29T12:19:50;6.20;;;3.40;;
76725;SDS011;65651;53.154;17.916;2022-12-29T12:22:36;4.80;;;2.50;;
76725;SDS011;65651;53.154;17.916;2022-12-29T12:25:17;6.80;;;3.40;;
76725;SDS011;65651;53.154;17.916;2022-12-29T12:27:51;11.20;;;4.90;;
76725;SDS011;65651;53.154;17.916;2022-12-29T12:30:27;46.80;;;14.00;;
76725;SDS011;65651;53.154;17.916;2022-12-29T12:33:04;10.40;;;3.80;;
76725;SDS011;65651;53.154;17.916;2022-12-29T12:35:44;58.50;;;19.60;;
76725;SDS011;65651;53.154;17.916;2022-12-29T12:47:18;11.20;;;4.90;;
76725;SDS011;65651;53.154;17.916;2022-12-29T12:52:58;12.50;;;5.40;;
76725;SDS011;65651;53.154;17.916;2022-12-29T12:56:13;6.70;;;3.40;;
76725;SDS011;65651;53.154;17.916;2022-12-29T12:58:48;8.80;;;4.30;;
76725;SDS011;65651;53.154;17.916;2022-12-29T13:10:19;10.20;;;4.20;;
76725;SDS011;65651;53.154;17.916;2022-12-29T13:21:07;13.60;;;4.60;;
76725;SDS011;65651;53.154;17.916;2022-12-29T13:26:42;4.40;;;2.50;;
76725;SDS011;65651;53.154;17.916;2022-12-29T13:34:37;5.50;;;3.10;;
76725;SDS011;65651;53.154;17.916;2022-12-29T13:37:20;6.30;;;2.90;;
76725;SDS011;65651;53.154;17.916;2022-12-29T13:39:54;6.50;;;3.20;;
76725;SDS011;65651;53.154;17.916;2022-12-29T13:42:26;7.00;;;3.60;;
76725;SDS011;65651;53.154;17.916;2022-12-29T13:45:05;5.60;;;3.40;;
76725;SDS011;65651;53.154;17.916;2022-12-29T13:47:39;7.40;;;4.00;;
76725;SDS011;65651;53.154;17.916;2022-12-29T13:50:20;10.10;;;4.60;;
76725;SDS011;65651;53.154;17.916;2022-12-29T14:01:50;9.70;;;5.20;;
76725;SDS011;65651;53.154;17.916;2022-12-29T14:04:27;7.50;;;4.40;;
76725;SDS011;65651;53.154;17.916;2022-12-29T14:07:00;17.90;;;9.20;;
76725;SDS011;65651;53.154;17.916;2022-12-29T14:12:01;16.00;;;8.30;;
76725;SDS011;65651;53.154;17.916;2022-12-29T14:14:28;16.80;;;8.40;;
76725;SDS011;65651;53.154;17.916;2022-12-29T14:17:08;45.40;;;19.10;;
76725;SDS011;65651;53.154;17.916;2022-12-29T14:19:41;22.70;;;11.10;;
76725;SDS011;65651;53.154;17.916;2022-12-29T14:22:11;44.10;;;14.70;;
76725;SDS011;65651;53.154;17.916;2022-12-29T14:34:54;36.20;;;15.10;;
76725;SDS011;65651;53.154;17.916;2022-12-29T14:40:06;27.00;;;13.10;;
76725;SDS011;65651;53.154;17.916;2022-12-29T14:42:41;34.50;;;14.20;;
76725;SDS011;65651;53.154;17.916;2022-12-29T14:58:22;172.60;;;47.60;;
76725;SDS011;65651;53.154;17.916;2022-12-29T15:00:55;208.10;;;70.40;;
76725;SDS011;65651;53.154;17.916;2022-12-29T15:03:35;78.00;;;32.90;;
76725;SDS011;65651;53.154;17.916;2022-12-29T15:06:12;40.90;;;23.10;;
76725;SDS011;65651;53.154;17.916;2022-12-29T15:20:00;28.40;;;14.20;;
76725;SDS011;65651;53.154;17.916;2022-12-29T15:22:47;32.70;;;16.50;;
76725;SDS011;65651;53.154;17.916;2022-12-29T15:25:17;32.60;;;16.10;;
76725;SDS011;65651;53.154;17.916;2022-12-29T15:27:52;34.00;;;16.30;;
76725;SDS011;65651;53.154;17.916;2022-12-29T15:30:23;22.80;;;8.80;;
76725;SDS011;65651;53.154;17.916;2022-12-29T15:32:51;20.50;;;9.90;;
76725;SDS011;65651;53.154;17.916;2022-12-29T15:35:23;12.00;;;5.50;;
76725;SDS011;65651;53.154;17.916;2022-12-29T15:37:57;9.90;;;4.70;;
76725;SDS011;65651;53.154;17.916;2022-12-29T15:40:27;15.90;;;7.00;;
76725;SDS011;65651;53.154;17.916;2022-12-29T15:45:39;20.90;;;9.20;;
76725;SDS011;65651;53.154;17.916;2022-12-29T15:48:10;46.90;;;20.60;;
76725;SDS011;65651;53.154;17.916;2022-12-29T15:50:45;26.10;;;9.30;;
76725;SDS011;65651;53.154;17.916;2022-12-29T15:56:14;16.50;;;7.30;;
76725;SDS011;65651;53.154;17.916;2022-12-29T15:58:43;19.00;;;8.80;;
76725;SDS011;65651;53.154;17.916;2022-12-29T16:01:32;13.50;;;6.10;;
76725;SDS011;65651;53.154;17.916;2022-12-29T16:04:03;15.30;;;6.20;;
76725;SDS011;65651;53.154;17.916;2022-12-29T16:06:34;13.00;;;5.30;;
76725;SDS011;65651;53.154;17.916;2022-12-29T16:09:04;12.50;;;5.30;;
76725;SDS011;65651;53.154;17.916;2022-12-29T16:11:46;11.50;;;4.80;;
76725;SDS011;65651;53.154;17.916;2022-12-29T16:14:21;10.10;;;4.70;;
76725;SDS011;65651;53.154;17.916;2022-12-29T16:17:01;10.70;;;5.90;;
76725;SDS011;65651;53.154;17.916;2022-12-29T16:19:37;9.50;;;4.00;;
76725;SDS011;65651;53.154;17.916;2022-12-29T16:22:10;10.30;;;4.40;;
76725;SDS011;65651;53.154;17.916;2022-12-29T16:24:43;8.90;;;4.00;;
76725;SDS011;65651;53.154;17.916;2022-12-29T16:29:53;9.60;;;4.50;;
76725;SDS011;65651;53.154;17.916;2022-12-29T16:32:23;8.50;;;3.40;;
76725;SDS011;65651;53.154;17.916;2022-12-29T16:37:45;8.90;;;4.00;;
76725;SDS011;65651;53.154;17.916;2022-12-29T16:42:54;17.20;;;6.90;;
76725;SDS011;65651;53.154;17.916;2022-12-29T16:51:03;6.90;;;3.30;;
76725;SDS011;65651;53.154;17.916;2022-12-29T16:53:39;10.80;;;3.50;;
76725;SDS011;65651;53.154;17.916;2022-12-29T16:56:19;8.80;;;4.10;;
76725;SDS011;65651;53.154;17.916;2022-12-29T16:58:51;62.20;;;20.80;;
76725;SDS011;65651;53.154;17.916;2022-12-29T17:01:22;27.30;;;12.00;;
76725;SDS011;65651;53.154;17.916;2022-12-29T17:03:53;4.20;;;2.30;;
76725;SDS011;65651;53.154;17.916;2022-12-29T17:06:25;29.60;;;18.80;;
76725;SDS011;65651;53.154;17.916;2022-12-29T17:08:57;17.60;;;5.00;;
76725;SDS011;65651;53.154;17.916;2022-12-29T17:11:28;11.00;;;5.30;;
76725;SDS011;65651;53.154;17.916;2022-12-29T17:16:57;16.60;;;8.70;;
76725;SDS011;65651;53.154;17.916;2022-12-29T17:19:29;25.10;;;17.50;;
76725;SDS011;65651;53.154;17.916;2022-12-29T17:21:59;17.80;;;7.60;;
76725;SDS011;65651;53.154;17.916;2022-12-29T17:24:27;14.70;;;6.20;;
76725;SDS011;65651;53.154;17.916;2022-12-29T17:26:56;10.70;;;4.40;;
76725;SDS011;65651;53.154;17.916;2022-12-29T17:29:38;15.70;;;5.80;;
76725;SDS011;65651;53.154;17.916;2022-12-29T17:32:09;31.70;;;16.60;;
76725;SDS011;65651;53.154;17.916;2022-12-29T17:34:40;25.60;;;10.60;;
76725;SDS011;65651;53.154;17.916;2022-12-29T17:37:30;15.80;;;8.00;;
76725;SDS011;65651;53.154;17.916;2022-12-29T17:39:57;11.70;;;6.30;;
76725;SDS011;65651;53.154;17.916;2022-12-29T17:42:25;17.00;;;7.30;;
76725;SDS011;65651;53.154;17.916;2022-12-29T17:44:55;14.80;;;7.20;;
76725;SDS011;65651;53.154;17.916;2022-12-29T17:47:23;22.90;;;10.10;;
76725;SDS011;65651;53.154;17.916;2022-12-29T17:49:50;27.70;;;12.70;;
76725;SDS011;65651;53.154;17.916;2022-12-29T17:52:17;48.20;;;19.60;;
76725;SDS011;65651;53.154;17.916;2022-12-29T17:54:50;25.00;;;11.40;;
76725;SDS011;65651;53.154;17.916;2022-12-29T17:57:19;16.90;;;7.80;;
76725;SDS011;65651;53.154;17.916;2022-12-29T17:59:47;29.20;;;15.40;;
76725;SDS011;65651;53.154;17.916;2022-12-29T18:04:50;36.20;;;16.10;;
76725;SDS011;65651;53.154;17.916;2022-12-29T18:07:18;31.70;;;12.80;;